Time;durP1;ratioP1;P1;durP2;ratioP2;P2;SDS_P1;SDS_P2;PMS_P1;PMS_P2;Temp;Humidity;BMP_temperature;BMP_pressure;BME280_temperature;BME280_humidity;BME280_pressure;Samples;Min_cycle;Max_cycle;Signal;HPM_P1;HPM_P2
2022/05/11 00:00:40;;;;;;;45.85;23.35;;;;;;;10.47;100.00;100866.97;5009977;28;20110;-76
2022/05/11 00:03:06;;;;;;;40.47;21.10;;;;;;;10.53;100.00;100868.97;5008059;28;20701;-75
2022/05/11 00:05:32;;;;;;;44.72;20.67;;;;;;;10.46;100.00;100854.59;5009584;28;20380;-75
2022/05/11 00:07:57;;;;;;;45.85;21.92;;;;;;;10.41;100.00;100843.56;5007440;28;20474;-76
2022/05/11 00:10:24;;;;;;;48.17;22.87;;;;;;;10.35;100.00;100847.72;5009900;28;20521;-76
2022/05/11 00:12:50;;;;;;;45.72;22.35;;;;;;;10.34;100.00;100839.84;5009215;28;20091;-76
2022/05/11 00:15:20;;;;;;;42.60;22.25;;;;;;;10.35;100.00;100841.53;5009825;28;20029;-75
2022/05/11 00:17:46;;;;;;;43.67;21.98;;;;;;;10.36;100.00;100853.88;5007975;28;20036;-75
2022/05/11 00:20:13;;;;;;;41.47;20.13;;;;;;;10.40;100.00;100860.59;5009590;28;20357;-75
2022/05/11 00:22:39;;;;;;;43.97;23.27;;;;;;;10.39;100.00;100869.56;5024878;28;20381;-75
2022/05/11 00:25:06;;;;;;;42.10;21.60;;;;;;;10.45;100.00;100868.94;5009665;28;20493;-75
2022/05/11 00:27:32;;;;;;;43.08;21.77;;;;;;;10.44;100.00;100859.28;5024966;28;20037;-76
2022/05/11 00:29:58;;;;;;;42.87;22.07;;;;;;;10.45;100.00;100866.28;5025187;28;20037;-75
2022/05/11 00:32:25;;;;;;;46.15;22.85;;;;;;;10.48;100.00;100873.13;5025353;28;20272;-76
2022/05/11 00:34:51;;;;;;;48.65;22.85;;;;;;;10.36;100.00;100853.88;5006560;28;20514;-75
2022/05/11 00:37:17;;;;;;;;;;;;;;;10.44;100.00;100867.28;5026653;28;20025;-76
2022/05/11 00:39:42;;;;;;;;;;;;;;;10.46;100.00;100862.59;5008735;28;20101;-75
2022/05/11 00:42:08;;;;;;;47.87;21.77;;;;;;;10.45;100.00;100863.59;5026003;28;20030;-76
2022/05/11 00:44:33;;;;;;;47.40;22.60;;;;;;;10.44;100.00;100856.59;5024826;28;20041;-76
2022/05/11 00:47:03;;;;;;;47.50;21.47;;;;;;;10.41;100.00;100856.91;5007450;28;20029;-76
2022/05/11 00:49:38;;;;;;;46.33;21.45;;;;;;;10.46;100.00;100859.09;4992467;28;20041;-77
2022/05/11 00:52:20;;;;;;;52.50;24.13;;;;;;;10.44;100.00;100850.41;4987580;28;20490;-75
2022/05/11 00:55:08;;;;;;;48.92;23.73;;;;;;;10.47;100.00;100856.28;4990997;28;20029;-76
2022/05/11 00:57:53;;;;;;;44.85;22.48;;;;;;;10.44;100.00;100843.25;5024953;28;20050;-77
2022/05/11 01:00:21;;;;;;;49.95;24.17;;;;;;;10.48;100.00;100847.25;5003970;28;20218;-76
2022/05/11 01:02:50;;;;;;;44.55;22.20;;;;;;;10.45;100.00;100828.06;5008004;28;20482;-76
2022/05/11 01:05:16;;;;;;;47.08;24.15;;;;;;;10.60;100.00;100841.66;5008772;28;20083;-76
2022/05/11 01:07:42;;;;;;;39.33;22.13;;;;;;;10.60;100.00;100847.81;5006613;28;20029;-76
2022/05/11 01:10:09;;;;;;;45.50;22.58;;;;;;;10.66;100.00;100857.88;5008611;28;20305;-75
2022/05/11 01:12:44;;;;;;;51.70;23.48;;;;;;;10.70;100.00;100856.56;5005932;28;20069;-76
2022/05/11 01:15:11;;;;;;;44.50;23.08;;;;;;;10.68;100.00;100861.22;5002260;28;20439;-75
2022/05/11 01:17:38;;;;;;;39.92;22.20;;;;;;;10.73;100.00;100866.09;5023932;28;20371;-76
2022/05/11 01:20:11;;;;;;;48.95;24.15;;;;;;;10.66;100.00;100865.88;5026031;28;20072;-76
2022/05/11 01:22:43;;;;;;;43.55;21.77;;;;;;;10.68;100.00;100860.38;5007721;28;20493;-76
2022/05/11 01:25:10;;;;;;;36.22;21.60;;;;;;;10.69;100.00;100843.34;5008460;28;20345;-76
2022/05/11 01:27:41;;;;;;;51.40;22.85;;;;;;;10.68;100.00;100841.69;5005954;28;20029;-76
2022/05/11 01:30:18;;;;;;;44.10;22.65;;;;;;;10.69;100.00;100849.53;5008219;28;20033;-76
2022/05/11 01:32:50;;;;;;;46.47;22.17;;;;;;;10.65;100.00;100840.19;4989838;28;20069;-77
2022/05/11 01:35:50;;;;;;;45.38;23.23;;;;;;;10.73;100.00;100850.88;5025098;28;20494;-76
2022/05/11 01:38:35;;;;;;;49.97;23.17;;;;;;;10.70;100.00;100839.69;5019955;28;20529;-76
2022/05/11 01:41:00;;;;;;;48.60;22.35;;;;;;;10.72;100.00;100832.34;5006461;28;20045;-76
2022/05/11 01:43:32;;;;;;;46.55;21.70;;;;;;;10.74;100.00;100830.34;5007560;28;20031;-75
2022/05/11 01:45:58;;;;;;;41.13;21.67;;;;;;;10.73;100.00;100824.19;5005844;28;20033;-76
2022/05/11 01:48:23;;;;;;;40.88;21.63;;;;;;;10.79;100.00;100833.38;5025232;28;20033;-76
2022/05/11 01:50:49;;;;;;;40.15;23.30;;;;;;;10.80;100.00;100834.22;5023112;28;20104;-76
2022/05/11 01:53:15;;;;;;;39.90;21.20;;;;;;;10.81;100.00;100828.72;5006403;28;20116;-76
2022/05/11 01:55:40;;;;;;;49.30;24.05;;;;;;;10.76;100.00;100820.34;5021409;28;20341;-76
2022/05/11 01:58:08;;;;;;;36.53;21.43;;;;;;;10.78;100.00;100821.03;5007827;28;20041;-75
2022/05/11 02:00:35;;;;;;;41.47;24.05;;;;;;;10.79;100.00;100812.00;5023952;28;20843;-76
2022/05/11 02:03:00;;;;;;;43.70;22.50;;;;;;;10.82;100.00;100805.53;4991342;28;20057;-75
2022/05/11 02:08:09;;;;;;;43.38;22.77;;;;;;;10.72;100.00;100792.28;5018689;28;20443;-76
2022/05/11 02:10:35;;;;;;;51.87;25.70;;;;;;;10.57;100.00;100787.56;5023765;28;20100;-76
2022/05/11 02:13:01;;;;;;;51.63;24.65;;;;;;;10.55;100.00;100788.75;5007662;28;20037;-76
2022/05/11 02:15:26;;;;;;;42.67;23.37;;;;;;;10.60;100.00;100796.25;4995749;28;20410;-76
2022/05/11 02:17:53;;;;;;;46.05;25.90;;;;;;;10.59;100.00;100795.44;4988897;28;20117;-76
2022/05/11 02:20:20;;;;;;;42.85;22.17;;;;;;;10.62;100.00;100799.59;4991198;28;20120;-76
2022/05/11 02:22:46;;;;;;;44.53;25.13;;;;;;;10.56;100.00;100791.25;5006347;28;20075;-76
2022/05/11 02:25:15;;;;;;;54.88;28.00;;;;;;;10.54;100.00;100797.75;5023593;28;20026;-76
2022/05/11 02:27:41;;;;;;;51.35;25.77;;;;;;;10.57;100.00;100808.94;5022592;28;20037;-76
2022/05/11 02:30:11;;;;;;;58.55;26.67;;;;;;;10.50;100.00;100802.56;4989454;28;20486;-75
2022/05/11 02:32:36;;;;;;;51.35;26.13;;;;;;;10.51;100.00;100814.94;5022190;28;20104;-76
2022/05/11 02:35:12;;;;;;;59.85;27.33;;;;;;;10.39;100.00;100805.50;5006442;28;20450;-76
2022/05/11 02:37:50;;;;;;;52.60;26.60;;;;;;;10.43;100.00;100808.72;5026237;28;20045;-75
2022/05/11 02:40:18;;;;;;;56.47;29.00;;;;;;;10.37;100.00;100807.50;5008198;28;20379;-75
2022/05/11 02:42:44;;;;;;;64.55;30.17;;;;;;;10.31;100.00;100813.50;5025672;28;20506;-75
2022/05/11 02:45:11;;;;;;;55.58;28.00;;;;;;;10.29;100.00;100810.97;4988589;28;20458;-76
2022/05/11 02:47:36;;;;;;;57.22;28.48;;;;;;;10.25;100.00;100809.59;5005099;28;20041;-76
2022/05/11 02:50:05;;;;;;;57.30;28.77;;;;;;;10.24;100.00;100801.75;5026080;28;20018;-75
2022/05/11 02:52:31;;;;;;;57.80;28.52;;;;;;;10.32;100.00;100807.16;5007985;28;20128;-76
2022/05/11 02:54:56;;;;;;;;;;;;;;;10.31;100.00;100808.16;5025847;28;20036;-76
2022/05/11 02:57:22;;;;;;;;;;;;;;;10.29;100.00;100810.16;5008687;28;19921;-75
2022/05/11 02:59:49;;;;;;;52.80;30.10;;;;;;;10.31;100.00;100802.81;5008114;28;19913;-76
2022/05/11 03:02:17;;;;;;;55.17;29.02;;;;;;;10.25;100.00;100798.91;5025324;28;20040;-75
2022/05/11 03:04:42;;;;;;;63.15;31.58;;;;;;;10.31;100.00;100797.50;5025744;28;20032;-77
2022/05/11 03:07:08;;;;;;;56.40;30.03;;;;;;;10.28;100.00;100803.97;5008139;28;20034;-76
2022/05/11 03:09:33;;;;;;;58.17;29.23;;;;;;;10.22;100.00;100791.22;4988332;28;20028;-76
2022/05/11 03:11:59;;;;;;;57.03;29.13;;;;;;;10.26;100.00;100789.94;5023983;28;20068;-76
2022/05/11 03:14:24;;;;;;;55.20;27.85;;;;;;;10.24;100.00;100788.41;5025763;28;20366;-75
2022/05/11 03:16:49;;;;;;;54.87;29.30;;;;;;;10.22;100.00;100779.72;5025307;28;20037;-76
2022/05/11 03:19:15;;;;;;;52.43;27.47;;;;;;;10.20;100.00;100768.38;5029650;28;20037;-75
2022/05/11 03:21:40;;;;;;;52.87;27.47;;;;;;;10.19;100.00;100767.53;5011096;28;20056;-75
2022/05/11 03:24:06;;;;;;;53.63;28.63;;;;;;;10.16;100.00;100767.88;5012295;28;20048;-76
2022/05/11 03:26:32;;;;;;;59.28;29.20;;;;;;;10.18;100.00;100770.38;5011984;28;20112;-76
2022/05/11 03:28:57;;;;;;;58.15;28.13;;;;;;;10.21;100.00;100770.91;5011665;28;20032;-76
2022/05/11 03:31:23;;;;;;;54.03;27.43;;;;;;;10.23;100.00;100771.56;5011849;28;20045;-76
2022/05/11 03:36:32;;;;;;;60.30;30.23;;;;;;;10.14;100.00;100761.84;5011370;28;20129;-77
2022/05/11 03:38:58;;;;;;;62.63;30.13;;;;;;;10.20;100.00;100763.88;5029073;28;20116;-76
2022/05/11 03:41:24;;;;;;;57.07;30.20;;;;;;;10.25;100.00;100779.41;5029159;28;20029;-76
2022/05/11 03:43:49;;;;;;;58.20;29.38;;;;;;;10.25;100.00;100771.41;5029334;28;20021;-75
2022/05/11 03:46:15;;;;;;;57.13;28.87;;;;;;;10.23;100.00;100768.91;5011482;28;20037;-76
2022/05/11 03:48:40;;;;;;;53.63;29.30;;;;;;;10.30;100.00;100769.09;5028980;28;20163;-76
2022/05/11 03:51:06;;;;;;;65.03;30.80;;;;;;;10.28;100.00;100763.94;5028897;28;20398;-75
2022/05/11 03:53:33;;;;;;;67.82;30.85;;;;;;;10.23;100.00;100744.03;5029229;28;20355;-75
2022/05/11 03:55:58;;;;;;;62.10;30.92;;;;;;;10.27;100.00;100742.72;5028563;28;20029;-75
2022/05/11 03:58:23;;;;;;;52.93;27.53;;;;;;;10.35;100.00;100753.47;5011212;28;20030;-76
2022/05/11 04:00:49;;;;;;;53.00;28.03;;;;;;;10.37;100.00;100748.78;5029105;28;20151;-76
2022/05/11 04:03:15;;;;;;;51.23;28.10;;;;;;;10.40;100.00;100750.31;5028835;28;20060;-76
2022/05/11 04:05:40;;;;;;;56.17;28.77;;;;;;;10.42;100.00;100746.50;5010965;28;20053;-75
2022/05/11 04:08:06;;;;;;;58.37;31.37;;;;;;;10.43;100.00;100742.81;4994855;28;20037;-76
2022/05/11 04:10:31;;;;;;;55.70;29.87;;;;;;;10.45;100.00;100743.50;5028819;28;20310;-75
2022/05/11 04:12:58;;;;;;;61.57;30.87;;;;;;;10.42;100.00;100735.81;5010795;28;20948;-76
2022/05/11 04:15:24;;;;;;;58.47;30.55;;;;;;;10.44;100.00;100731.16;5010964;28;20029;-75
2022/05/11 04:17:49;;;;;;;65.50;31.20;;;;;;;10.46;100.00;100731.81;5011046;28;20505;-76
2022/05/11 04:20:17;;;;;;;66.88;30.73;;;;;;;10.48;100.00;100721.81;4993483;28;20128;-76
2022/05/11 04:22:43;;;;;;;49.53;27.55;;;;;;;10.54;100.00;100726.50;5026828;28;20025;-76
2022/05/11 04:25:10;;;;;;;56.55;29.55;;;;;;;10.64;100.00;100726.38;5010646;28;20061;-75
2022/05/11 04:27:36;;;;;;;59.55;30.25;;;;;;;10.66;100.00;100720.88;5028343;28;20033;-75
2022/05/11 04:30:04;;;;;;;52.80;28.35;;;;;;;10.68;100.00;100717.03;5009110;28;20125;-75
2022/05/11 04:32:29;;;;;;;65.82;31.90;;;;;;;10.69;100.00;100717.88;5010270;28;20033;-76
2022/05/11 04:34:55;;;;;;;61.30;31.37;;;;;;;10.74;100.00;100718.19;5027976;28;20033;-76
2022/05/11 04:37:20;;;;;;;54.77;30.43;;;;;;;10.80;100.00;100722.91;5010606;28;20615;-75
2022/05/11 04:39:46;;;;;;;58.70;30.63;;;;;;;10.86;100.00;100726.72;4994192;28;20033;-76
2022/05/11 04:42:11;;;;;;;49.80;26.90;;;;;;;10.91;100.00;100714.56;5028315;28;20036;-75
2022/05/11 04:44:37;;;;;;;62.30;30.35;;;;;;;10.97;100.00;100715.72;5010476;28;20033;-75
2022/05/11 04:47:11;;;;;;;57.47;28.25;;;;;;;10.94;100.00;100719.56;5020337;28;20061;-75
2022/05/11 04:49:38;;;;;;;52.80;27.42;;;;;;;10.92;100.00;100707.38;4993714;28;20148;-75
2022/05/11 04:52:07;;;;;;;;;;;;;;;10.94;100.00;100700.88;5010285;28;20021;-76
2022/05/11 04:54:41;;;;;;;46.38;26.63;;;;;;;10.96;100.00;100698.06;5010589;28;19916;-75
2022/05/11 04:57:08;;;;;;;47.63;25.95;;;;;;;10.96;100.00;100679.34;4993470;28;20033;-75
2022/05/11 04:59:33;;;;;;;;;;;;;;;10.82;100.00;100672.00;5028049;28;20060;-75
2022/05/11 05:02:03;;;;;;;;;;;;;;;10.90;100.00;100661.31;5010398;28;20433;-76
2022/05/11 05:04:29;;;;;;;42.22;24.83;;;;;;;10.97;100.00;100660.47;4993775;28;20297;-76
2022/05/11 05:06:55;;;;;;;;;;;;;;;10.96;100.00;100653.47;5010313;28;20029;-76
2022/05/11 05:09:20;;;;;;;;;;;;;;;11.06;100.00;100657.81;5027841;28;19920;-76
2022/05/11 05:11:46;;;;;;;44.10;24.77;;;;;;;11.16;100.00;100645.09;4993376;28;19920;-76
2022/05/11 05:14:11;;;;;;;55.33;25.90;;;;;;;11.22;100.00;100638.25;5009897;28;20064;-76
2022/05/11 05:16:37;;;;;;;51.43;25.30;;;;;;;11.02;100.00;100635.09;4993547;28;20316;-76
2022/05/11 05:19:03;;;;;;;49.13;24.25;;;;;;;11.19;100.00;100628.72;4993112;28;20072;-77
2022/05/11 05:21:29;;;;;;;42.80;23.42;;;;;;;11.28;100.00;100625.03;5008896;28;20426;-76
2022/05/11 05:23:54;;;;;;;42.30;22.35;;;;;;;11.35;100.00;100619.84;5009467;28;20041;-76
2022/05/11 05:26:20;;;;;;;43.23;20.50;;;;;;;11.36;100.00;100621.53;4978864;28;20026;-75
2022/05/11 05:31:31;;;;;;;34.85;19.77;;;;;;;11.48;100.00;100619.31;5025449;28;20128;-75
2022/05/11 05:33:59;;;;;;;35.22;20.55;;;;;;;11.39;100.00;100594.44;5006566;28;20617;-76
2022/05/11 05:36:30;;;;;;;35.55;20.30;;;;;;;11.33;100.00;100595.97;5025351;28;20037;-75
2022/05/11 05:38:58;;;;;;;35.85;20.25;;;;;;;11.48;100.00;100601.44;5023520;28;20049;-76
2022/05/11 05:41:23;;;;;;;36.00;18.85;;;;;;;11.34;100.00;100592.28;4990084;28;20025;-76
2022/05/11 05:43:49;;;;;;;37.97;19.75;;;;;;;11.46;100.00;100592.75;5006149;28;20505;-76
2022/05/11 05:46:16;;;;;;;33.20;21.57;;;;;;;11.44;100.00;100597.44;5008006;28;20029;-75
2022/05/11 05:48:42;;;;;;;33.30;17.92;;;;;;;11.46;100.00;100594.59;5023286;28;20139;-76
2022/05/11 05:51:09;;;;;;;33.22;19.65;;;;;;;11.49;100.00;100611.09;5005761;28;20459;-76
2022/05/11 05:53:35;;;;;;;36.70;19.95;;;;;;;11.65;100.00;100606.72;4989252;28;20045;-76
2022/05/11 05:56:01;;;;;;;31.95;18.92;;;;;;;11.62;100.00;100603.38;5024132;28;20032;-76
2022/05/11 05:58:27;;;;;;;35.53;19.15;;;;;;;11.56;100.00;100592.53;5007987;28;20041;-75
2022/05/11 06:00:53;;;;;;;27.50;18.23;;;;;;;11.66;100.00;100590.53;5014725;23;20038;-75
2022/05/11 06:03:20;;;;;;;30.30;16.55;;;;;;;11.86;100.00;100600.78;4991259;28;20414;-75
2022/05/11 06:05:45;;;;;;;32.13;18.00;;;;;;;11.90;100.00;100600.31;4990344;28;20201;-75
2022/05/11 06:08:15;;;;;;;32.03;18.83;;;;;;;11.92;100.00;100592.94;4984800;28;20124;-75
2022/05/11 06:10:41;;;;;;;37.13;19.00;;;;;;;12.00;100.00;100586.69;4986758;28;20034;-75
2022/05/11 06:13:07;;;;;;;26.30;16.30;;;;;;;11.99;100.00;100585.06;4986790;28;20026;-75
2022/05/11 06:15:33;;;;;;;30.65;17.13;;;;;;;12.14;100.00;100577.91;4965561;28;20053;-75
2022/05/11 06:17:58;;;;;;;26.40;16.42;;;;;;;12.25;100.00;100574.84;4986495;28;20014;-75
2022/05/11 06:20:24;;;;;;;27.33;17.17;;;;;;;12.30;100.00;100560.94;4986948;28;20450;-74
2022/05/11 06:22:50;;;;;;;29.05;14.70;;;;;;;12.44;100.00;100562.81;4963261;28;20070;-75
2022/05/11 06:25:18;;;;;;;;;;;;;;;12.25;100.00;100552.59;4984188;28;20046;-75
2022/05/11 06:27:44;;;;;;;25.30;15.90;;;;;;;12.25;100.00;100553.44;4977980;28;19910;-75
2022/05/11 06:30:10;;;;;;;24.05;16.27;;;;;;;12.27;100.00;100549.72;4966756;28;20089;-74
2022/05/11 06:32:36;;;;;;;21.88;14.88;;;;;;;12.45;100.00;100558.28;4983144;28;20073;-74
2022/05/11 06:35:02;;;;;;;25.98;14.98;;;;;;;12.55;100.00;100569.63;4969357;28;20030;-75
2022/05/11 06:37:28;;;;;;;24.73;16.55;;;;;;;12.49;100.00;100559.59;4984465;28;20535;-75
2022/05/11 06:39:53;;;;;;;22.88;15.32;;;;;;;12.35;100.00;100558.53;4985083;28;20110;-75
2022/05/11 06:42:20;;;;;;;24.20;14.85;;;;;;;12.46;100.00;100558.13;4986444;28;20479;-76
2022/05/11 06:44:46;;;;;;;21.05;13.88;;;;;;;12.66;100.00;100554.94;4985285;28;20036;-76
2022/05/11 06:47:11;;;;;;;22.73;14.52;;;;;;;12.74;100.00;100546.03;4986528;28;20034;-76
2022/05/11 06:49:37;;;;;;;22.17;14.60;;;;;;;12.74;100.00;100540.66;4985190;28;20163;-77
2022/05/11 06:52:02;;;;;;;19.60;13.67;;;;;;;12.79;100.00;100538.28;4985748;28;20030;-73
2022/05/11 06:59:57;;;;;;;20.58;13.27;;;;;;;12.80;100.00;100546.09;4986275;28;20045;-77
2022/05/11 07:02:24;;;;;;;18.92;13.18;;;;;;;12.98;100.00;100552.97;4985255;28;20032;-74
2022/05/11 07:04:49;;;;;;;19.92;13.15;;;;;;;13.06;100.00;100545.72;4983119;28;20045;-76
2022/05/11 07:07:16;;;;;;;20.35;12.77;;;;;;;13.11;100.00;100542.47;4980279;28;20034;-76
2022/05/11 07:09:42;;;;;;;18.98;11.48;;;;;;;13.19;100.00;100534.31;4981392;28;20093;-75
2022/05/11 07:12:17;;;;;;;25.17;12.45;;;;;;;13.79;100.00;100535.13;4968942;28;20038;-76
2022/05/11 07:14:44;;;;;;;21.20;10.48;;;;;;;13.96;100.00;100508.91;4985302;28;20045;-76
2022/05/11 07:17:10;;;;;;;14.70;10.50;;;;;;;13.85;100.00;100498.66;4986076;28;20096;-74
2022/05/11 07:19:42;;;;;;;19.75;11.20;;;;;;;13.69;100.00;100488.97;4980155;28;20046;-77
2022/05/11 07:22:07;;;;;;;18.33;10.68;;;;;;;13.91;100.00;100504.09;4966592;28;20105;-75
2022/05/11 07:24:33;;;;;;;14.23;9.90;;;;;;;14.23;100.00;100509.97;4968334;28;20026;-74
2022/05/11 07:26:58;;;;;;;13.85;9.55;;;;;;;14.21;100.00;100495.94;4982463;28;20026;-75
2022/05/11 07:29:24;;;;;;;14.23;10.75;;;;;;;14.07;100.00;100464.59;4979899;28;20033;-75
2022/05/11 07:31:49;;;;;;;12.73;10.47;;;;;;;14.42;100.00;100500.47;4974608;28;20047;-77
2022/05/11 07:34:15;;;;;;;15.23;10.33;;;;;;;14.51;100.00;100490.38;4977729;28;20026;-76
2022/05/11 07:36:40;;;;;;;16.63;10.63;;;;;;;14.59;100.00;100479.53;4979503;28;20600;-75
2022/05/11 07:39:05;;;;;;;15.63;10.33;;;;;;;14.56;100.00;100461.13;4982618;28;20030;-77
2022/05/11 07:41:31;;;;;;;15.23;10.37;;;;;;;14.35;100.00;100467.31;4979279;28;20034;-77
2022/05/11 07:43:57;;;;;;;16.03;9.80;;;;;;;14.30;100.00;100470.59;4979624;28;20092;-74
2022/05/11 07:46:23;;;;;;;;;;;;;;;14.62;100.00;100489.91;4965505;28;20042;-77
2022/05/11 07:48:49;;;;;;;;;;;;;;;14.02;100.00;100469.72;4978976;28;19910;-76
2022/05/11 07:51:16;;;;;;;16.52;10.52;;;;;;;14.05;100.00;100472.03;4980024;28;19914;-76
2022/05/11 07:53:41;;;;;;;;;;;;;;;13.99;100.00;100478.16;4976602;28;20499;-77
2022/05/11 08:01:35;;;;;;;15.88;11.52;;;;;;;14.08;100.00;100502.00;4976748;28;20042;-76
2022/05/11 08:04:00;;;;;;;20.07;11.10;;;;;;;14.23;100.00;100498.41;4981649;28;20025;-76
2022/05/11 08:06:26;;;;;;;14.53;9.80;;;;;;;14.23;100.00;100484.97;4966577;28;20627;-77
2022/05/11 08:08:51;;;;;;;18.07;11.50;;;;;;;14.31;100.00;100484.88;4963873;28;20425;-77
2022/05/11 08:11:16;;;;;;;15.90;10.17;;;;;;;14.72;100.00;100495.75;4983621;28;20131;-77
2022/05/11 08:13:42;;;;;;;16.87;11.23;;;;;;;14.29;100.00;100466.25;4980652;28;20031;-74
2022/05/11 08:16:07;;;;;;;19.70;12.37;;;;;;;14.06;100.00;100460.25;4981679;28;20045;-76
2022/05/11 08:18:33;;;;;;;19.42;11.15;;;;;;;14.06;100.00;100465.63;4980825;28;20121;-76
2022/05/11 08:20:58;;;;;;;16.75;10.32;;;;;;;14.26;100.00;100469.34;4981490;28;20022;-77
2022/05/11 08:23:26;;;;;;;14.43;10.07;;;;;;;14.63;100.00;100462.00;4981575;28;20396;-77
2022/05/11 08:25:54;;;;;;;17.08;10.65;;;;;;;14.95;100.00;100459.72;4964294;28;20496;-77
2022/05/11 08:28:22;;;;;;;15.93;9.40;;;;;;;14.87;100.00;100446.47;4967478;28;20065;-75
2022/05/11 08:33:38;;;;;;;14.65;9.52;;;;;;;15.11;100.00;100448.63;4981624;28;20042;-77
2022/05/11 08:36:06;;;;;;;15.73;10.38;;;;;;;15.44;100.00;100441.75;4974377;28;20085;-77
2022/05/11 08:38:35;;;;;;;17.95;11.50;;;;;;;15.22;100.00;100417.69;4981295;28;20046;-74
2022/05/11 08:41:19;;;;;;;16.30;9.65;;;;;;;15.91;100.00;100440.84;4969999;28;20076;-77
2022/05/11 08:43:45;;;;;;;18.38;11.52;;;;;;;15.77;100.00;100404.19;4981486;28;20086;-77
2022/05/11 08:46:23;;;;;;;19.45;11.95;;;;;;;15.91;100.00;100408.53;4984610;28;20022;-77
2022/05/11 08:49:05;;;;;;;16.48;11.80;;;;;;;15.83;100.00;100414.97;4966377;28;20497;-77
2022/05/11 08:51:40;;;;;;;17.83;12.15;;;;;;;15.82;100.00;100407.09;4982349;28;20169;-76
2022/05/11 08:54:11;;;;;;;16.10;10.98;;;;;;;15.69;100.00;100407.06;4955153;28;20505;-77
2022/05/11 08:56:38;;;;;;;17.45;10.52;;;;;;;15.88;100.00;100427.00;4980994;28;20555;-75
2022/05/11 08:59:06;;;;;;;16.70;11.45;;;;;;;16.00;100.00;100393.84;4966836;28;20015;-78
2022/05/11 09:01:48;;;;;;;14.90;10.88;;;;;;;15.85;100.00;100417.47;4980568;28;20547;-75
2022/05/11 09:04:18;;;;;;;17.05;12.25;;;;;;;16.14;100.00;100400.06;4974060;28;20037;-77
2022/05/11 09:06:45;;;;;;;16.85;10.75;;;;;;;16.15;100.00;100387.41;4964892;28;20037;-77
2022/05/11 09:09:14;;;;;;;18.60;12.32;;;;;;;16.34;100.00;100362.34;4983517;28;20571;-77
2022/05/11 09:11:54;;;;;;;15.98;10.65;;;;;;;16.80;100.00;100385.69;4979821;28;20050;-77
2022/05/11 09:14:31;;;;;;;17.48;11.23;;;;;;;16.81;100.00;100364.94;4983867;28;20030;-76
2022/05/11 09:16:57;;;;;;;17.48;11.05;;;;;;;16.63;100.00;100371.81;4997130;28;20473;-76
2022/05/11 09:19:25;;;;;;;16.90;10.52;;;;;;;16.66;100.00;100365.16;4968099;28;20097;-75
2022/05/11 09:21:56;;;;;;;20.02;10.30;;;;;;;16.80;100.00;100398.34;4963546;28;20085;-77
2022/05/11 09:24:30;;;;;;;16.77;11.68;;;;;;;16.71;100.00;100356.44;4983218;28;20030;-77
2022/05/11 09:27:06;;;;;;;15.00;11.18;;;;;;;16.87;100.00;100350.63;4997748;28;20034;-77
2022/05/11 09:29:37;;;;;;;16.80;11.13;;;;;;;17.03;100.00;100392.47;4981291;28;20129;-77
2022/05/11 09:32:27;;;;;;;20.73;11.93;;;;;;;17.49;100.00;100386.84;4970504;28;20044;-76
2022/05/11 09:34:53;;;;;;;17.35;11.63;;;;;;;17.66;100.00;100364.72;4981816;28;20046;-77
2022/05/11 09:37:36;;;;;;;16.75;11.07;;;;;;;18.37;100.00;100349.19;4983541;28;20026;-78
2022/05/11 09:40:09;;;;;;;19.02;11.18;;;;;;;18.91;100.00;100275.38;4961512;28;20041;-77
2022/05/11 09:42:34;;;;;;;17.58;10.50;;;;;;;18.93;100.00;100267.84;4964872;28;20057;-77
2022/05/11 09:45:01;;;;;;;14.70;10.83;;;;;;;19.18;100.00;100269.59;4971870;28;20027;-78
2022/05/11 09:47:28;;;;;;;;;;;;;;;19.50;98.45;100250.34;4984484;28;20069;-78
2022/05/11 09:49:55;;;;;;;12.65;8.32;;;;;;;19.76;92.69;100195.78;4982341;28;20178;-77
2022/05/11 09:52:33;;;;;;;15.45;9.00;;;;;;;20.97;88.04;100216.66;4967602;28;20046;-77
2022/05/11 09:55:00;;;;;;;12.98;8.52;;;;;;;20.71;84.45;100157.59;4983715;28;20038;-78
2022/05/11 09:57:28;;;;;;;15.25;8.45;;;;;;;20.19;85.53;100163.91;4966872;28;20022;-78
2022/05/11 10:00:18;;;;;;;14.15;7.32;;;;;;;20.00;82.02;100087.38;4997098;28;20039;-76
2022/05/11 10:02:48;;;;;;;11.80;6.68;;;;;;;21.33;79.12;100144.00;4981844;28;20534;-76
2022/05/11 10:05:26;;;;;;;14.52;7.30;;;;;;;20.94;78.15;100103.19;4984256;28;20048;-76
2022/05/11 10:08:24;;;;;;;15.68;5.97;;;;;;;22.36;77.07;100194.31;4982257;28;20058;-78
2022/05/11 10:11:00;;;;;;;11.02;5.45;;;;;;;23.65;68.99;100064.50;4982151;28;20222;-77
2022/05/11 10:13:32;;;;;;;7.53;6.07;;;;;;;22.29;66.06;99896.25;4986044;28;20041;-78
2022/05/11 10:21:56;;;;;;;8.47;4.97;;;;;;;22.22;69.22;100022.59;4981706;28;20042;-78
2022/05/11 10:24:44;;;;;;;9.57;5.10;;;;;;;22.12;68.48;100020.56;4976708;28;20042;-77
2022/05/11 10:27:36;;;;;;;9.50;5.15;;;;;;;21.62;70.46;100006.19;4972854;28;20057;-79
2022/05/11 10:30:17;;;;;;;11.07;5.60;;;;;;;21.60;70.63;100011.03;4975399;28;20153;-75
2022/05/11 10:33:08;;;;;;;12.77;5.78;;;;;;;21.59;72.16;100054.78;4982313;28;20155;-75
2022/05/11 10:36:00;;;;;;;9.10;5.82;;;;;;;21.73;68.80;99958.22;4987986;28;20515;-79
2022/05/11 10:38:38;;;;;;;9.05;5.13;;;;;;;21.93;69.08;100015.47;4981135;28;20054;-78
2022/05/11 10:41:30;;;;;;;8.35;5.85;;;;;;;21.84;69.91;100027.06;4986690;28;20403;-77
2022/05/11 10:44:16;;;;;;;8.43;5.78;;;;;;;21.28;69.67;99979.13;4998787;28;20038;-79
2022/05/11 10:47:19;;;;;;;9.10;5.55;;;;;;;20.86;68.86;99914.53;4982554;28;20513;-76
2022/05/11 10:50:09;;;;;;;12.15;6.68;;;;;;;20.37;71.19;99937.88;4985583;28;20403;-78
2022/05/11 10:53:09;;;;;;;9.48;5.57;;;;;;;21.02;69.11;99996.94;4982834;28;20052;-75
2022/05/11 10:55:56;;;;;;;10.07;5.50;;;;;;;19.93;70.51;99924.97;4982127;28;20042;-78
2022/05/11 10:58:50;;;;;;;9.65;5.88;;;;;;;19.71;74.86;100035.88;4960006;28;20804;-76
2022/05/11 11:01:17;;;;;;;10.45;6.25;;;;;;;19.95;77.14;100114.38;4977899;28;20081;-76
2022/05/11 11:04:10;;;;;;;7.60;5.55;;;;;;;21.07;74.85;100168.00;4981533;28;20089;-76
2022/05/11 11:07:13;;;;;;;8.98;5.78;;;;;;;20.91;70.46;100030.44;4981824;28;20092;-77
2022/05/11 11:10:22;;;;;;;9.48;4.88;;;;;;;20.89;68.10;99970.19;4981827;28;20034;-78
2022/05/11 11:13:17;;;;;;;7.18;4.45;;;;;;;20.99;62.80;99828.41;4961567;28;20050;-78
2022/05/11 11:15:44;;;;;;;10.13;4.28;;;;;;;21.80;61.14;99918.09;4965455;28;20042;-79
2022/05/11 11:18:13;;;;;;;8.48;4.53;;;;;;;21.83;59.65;99855.09;4968774;28;20100;-77
2022/05/11 11:20:42;;;;;;;11.05;3.78;;;;;;;22.16;61.48;99959.19;4983194;28;20038;-78
2022/05/11 11:23:17;;;;;;;7.78;4.65;;;;;;;21.96;58.76;99839.41;4990209;28;20049;-75
2022/05/11 11:25:58;;;;;;;9.82;3.83;;;;;;;22.41;59.23;99927.91;4986878;28;20039;-76
2022/05/11 11:28:31;;;;;;;9.93;4.10;;;;;;;22.50;58.90;99918.13;4966183;28;20039;-79
2022/05/11 11:31:00;;;;;;;5.80;3.80;;;;;;;23.28;55.44;99846.72;4964838;28;20559;-76
2022/05/11 11:33:37;;;;;;;9.38;3.83;;;;;;;22.80;55.26;99797.78;4982736;28;20511;-79
2022/05/11 11:36:28;;;;;;;6.82;3.95;;;;;;;22.64;54.82;99739.81;4971080;28;20224;-78
2022/05/11 11:38:58;;;;;;;9.38;5.07;;;;;;;21.93;57.38;99806.25;4988945;28;20043;-79
2022/05/11 11:41:28;;;;;;;9.10;5.53;;;;;;;22.42;58.68;99932.25;4989414;28;20538;-79
2022/05/11 11:44:02;;;;;;;10.13;4.82;;;;;;;22.68;57.98;99928.59;4971795;28;20098;-79
2022/05/11 11:46:40;;;;;;;8.35;5.43;;;;;;;21.20;59.99;99815.88;4972909;28;20117;-79
2022/05/11 11:49:11;;;;;;;10.63;4.40;;;;;;;21.20;61.41;99868.28;4971399;28;20487;-79